sensor_id;sensor_type;location;lat;lon;timestamp;pressure;altitude;pressure_sealevel;temperature;humidity
66547;BME280;53400;50.364;14.874;2023-11-22T00:00:33;98895.81;;;-0.01;100.00
66547;BME280;53400;50.364;14.874;2023-11-22T00:03:20;98912.09;;;0.03;100.00
66547;BME280;53400;50.364;14.874;2023-11-22T00:05:51;98904.03;;;-0.04;100.00
66547;BME280;53400;50.364;14.874;2023-11-22T00:08:18;98908.50;;;-0.04;100.00
66547;BME280;53400;50.364;14.874;2023-11-22T00:10:44;98906.00;;;0.03;100.00
66547;BME280;53400;50.364;14.874;2023-11-22T00:13:10;98910.78;;;-0.01;100.00
66547;BME280;53400;50.364;14.874;2023-11-22T00:15:37;98913.06;;;0.02;100.00
66547;BME280;53400;50.364;14.874;2023-11-22T00:18:03;98912.25;;;0.10;100.00
66547;BME280;53400;50.364;14.874;2023-11-22T00:20:31;98923.78;;;0.01;100.00
66547;BME280;53400;50.364;14.874;2023-11-22T00:22:57;98921.63;;;0.04;100.00
66547;BME280;53400;50.364;14.874;2023-11-22T00:25:25;98932.88;;;-0.10;100.00
66547;BME280;53400;50.364;14.874;2023-11-22T00:27:55;98919.22;;;-0.14;100.00
66547;BME280;53400;50.364;14.874;2023-11-22T00:30:23;98920.84;;;-0.05;100.00
66547;BME280;53400;50.364;14.874;2023-11-22T00:32:49;98929.69;;;0.03;100.00
66547;BME280;53400;50.364;14.874;2023-11-22T00:35:15;98933.81;;;-0.03;100.00
66547;BME280;53400;50.364;14.874;2023-11-22T00:37:43;98931.50;;;0.10;100.00
66547;BME280;53400;50.364;14.874;2023-11-22T00:40:10;98938.88;;;0.15;100.00
66547;BME280;53400;50.364;14.874;2023-11-22T00:42:39;98935.59;;;0.13;100.00
66547;BME280;53400;50.364;14.874;2023-11-22T00:45:08;98942.47;;;0.22;100.00
66547;BME280;53400;50.364;14.874;2023-11-22T00:47:35;98941.91;;;-0.05;100.00
66547;BME280;53400;50.364;14.874;2023-11-22T00:50:02;98948.19;;;-0.14;100.00
66547;BME280;53400;50.364;14.874;2023-11-22T00:52:32;98952.78;;;-0.08;100.00
66547;BME280;53400;50.364;14.874;2023-11-22T00:55:00;98951.16;;;-0.17;100.00
66547;BME280;53400;50.364;14.874;2023-11-22T00:57:25;98956.88;;;-0.05;100.00
66547;BME280;53400;50.364;14.874;2023-11-22T00:59:53;98949.47;;;-0.10;100.00
66547;BME280;53400;50.364;14.874;2023-11-22T01:02:20;98955.41;;;-0.16;100.00
66547;BME280;53400;50.364;14.874;2023-11-22T01:04:46;98950.81;;;-0.14;100.00
66547;BME280;53400;50.364;14.874;2023-11-22T01:07:12;98951.28;;;-0.10;100.00
66547;BME280;53400;50.364;14.874;2023-11-22T01:09:39;98946.53;;;-0.15;100.00
66547;BME280;53400;50.364;14.874;2023-11-22T01:12:08;98959.03;;;-0.17;100.00
66547;BME280;53400;50.364;14.874;2023-11-22T01:14:35;98970.25;;;-0.31;100.00
66547;BME280;53400;50.364;14.874;2023-11-22T01:17:01;98964.16;;;-0.24;100.00
66547;BME280;53400;50.364;14.874;2023-11-22T01:19:27;98964.78;;;-0.13;100.00
66547;BME280;53400;50.364;14.874;2023-11-22T01:22:00;98964.66;;;-0.20;100.00
66547;BME280;53400;50.364;14.874;2023-11-22T01:24:28;98967.28;;;-0.12;100.00
66547;BME280;53400;50.364;14.874;2023-11-22T01:26:58;98972.34;;;-0.18;100.00
66547;BME280;53400;50.364;14.874;2023-11-22T01:29:26;98976.19;;;-0.21;100.00
66547;BME280;53400;50.364;14.874;2023-11-22T01:31:54;98976.84;;;-0.35;100.00
66547;BME280;53400;50.364;14.874;2023-11-22T01:34:27;98972.72;;;-0.38;100.00
66547;BME280;53400;50.364;14.874;2023-11-22T01:36:55;98974.50;;;-0.22;100.00
66547;BME280;53400;50.364;14.874;2023-11-22T01:39:22;98982.25;;;-0.29;100.00
66547;BME280;53400;50.364;14.874;2023-11-22T01:41:59;98984.88;;;-0.29;100.00
66547;BME280;53400;50.364;14.874;2023-11-22T01:44:27;98982.41;;;-0.22;100.00
66547;BME280;53400;50.364;14.874;2023-11-22T01:46:53;98988.34;;;-0.12;100.00
66547;BME280;53400;50.364;14.874;2023-11-22T01:49:22;98989.81;;;-0.17;100.00
66547;BME280;53400;50.364;14.874;2023-11-22T01:51:49;98988.53;;;-0.30;100.00
66547;BME280;53400;50.364;14.874;2023-11-22T01:54:18;98995.41;;;-0.29;100.00
66547;BME280;53400;50.364;14.874;2023-11-22T01:56:46;98988.69;;;-0.39;100.00
66547;BME280;53400;50.364;14.874;2023-11-22T01:59:13;99001.69;;;-0.30;100.00
66547;BME280;53400;50.364;14.874;2023-11-22T02:01:43;99003.97;;;-0.27;100.00
66547;BME280;53400;50.364;14.874;2023-11-22T02:04:09;99014.81;;;-0.13;100.00
66547;BME280;53400;50.364;14.874;2023-11-22T02:06:38;99019.59;;;-0.17;100.00
66547;BME280;53400;50.364;14.874;2023-11-22T02:09:04;99011.53;;;-0.24;100.00
66547;BME280;53400;50.364;14.874;2023-11-22T02:11:30;99023.41;;;-0.36;100.00
66547;BME280;53400;50.364;14.874;2023-11-22T02:13:59;99031.09;;;-0.34;100.00
66547;BME280;53400;50.364;14.874;2023-11-22T02:16:25;99031.44;;;-0.37;100.00
66547;BME280;53400;50.364;14.874;2023-11-22T02:18:53;99037.38;;;-0.43;100.00
66547;BME280;53400;50.364;14.874;2023-11-22T02:21:20;99038.34;;;-0.53;100.00
66547;BME280;53400;50.364;14.874;2023-11-22T02:23:52;99051.03;;;-0.48;100.00
66547;BME280;53400;50.364;14.874;2023-11-22T02:26:19;99047.91;;;-0.52;100.00
66547;BME280;53400;50.364;14.874;2023-11-22T02:28:46;99053.81;;;-0.50;100.00
66547;BME280;53400;50.364;14.874;2023-11-22T02:31:14;99052.47;;;-0.62;100.00
66547;BME280;53400;50.364;14.874;2023-11-22T02:33:40;99056.44;;;-0.66;100.00
66547;BME280;53400;50.364;14.874;2023-11-22T02:36:08;99052.59;;;-0.80;100.00
66547;BME280;53400;50.364;14.874;2023-11-22T02:38:38;99057.53;;;-0.77;100.00
66547;BME280;53400;50.364;14.874;2023-11-22T02:41:06;99060.69;;;-0.65;100.00
66547;BME280;53400;50.364;14.874;2023-11-22T02:43:33;99064.63;;;-0.77;100.00
66547;BME280;53400;50.364;14.874;2023-11-22T02:46:06;99073.50;;;-0.70;100.00
66547;BME280;53400;50.364;14.874;2023-11-22T02:48:34;99082.38;;;-0.71;100.00
66547;BME280;53400;50.364;14.874;2023-11-22T02:51:00;99083.53;;;-0.65;100.00
66547;BME280;53400;50.364;14.874;2023-11-22T02:53:27;99088.78;;;-0.82;100.00
66547;BME280;53400;50.364;14.874;2023-11-22T02:55:59;99096.03;;;-0.76;100.00
66547;BME280;53400;50.364;14.874;2023-11-22T02:58:28;99093.41;;;-0.76;100.00
66547;BME280;53400;50.364;14.874;2023-11-22T03:00:54;99093.41;;;-0.76;100.00
66547;BME280;53400;50.364;14.874;2023-11-22T03:03:23;99100.31;;;-0.66;100.00
66547;BME280;53400;50.364;14.874;2023-11-22T03:05:52;99102.44;;;-0.70;100.00
66547;BME280;53400;50.364;14.874;2023-11-22T03:08:19;99105.69;;;-0.76;100.00
66547;BME280;53400;50.364;14.874;2023-11-22T03:10:45;99113.94;;;-0.71;100.00
66547;BME280;53400;50.364;14.874;2023-11-22T03:13:12;99125.44;;;-0.80;100.00
66547;BME280;53400;50.364;14.874;2023-11-22T03:15:42;99122.88;;;-0.64;100.00
66547;BME280;53400;50.364;14.874;2023-11-22T03:18:09;99118.22;;;-0.70;100.00
66547;BME280;53400;50.364;14.874;2023-11-22T03:20:34;99119.59;;;-0.58;100.00
66547;BME280;53400;50.364;14.874;2023-11-22T03:23:01;99126.63;;;-0.66;100.00
66547;BME280;53400;50.364;14.874;2023-11-22T03:25:27;99126.16;;;-0.54;100.00
66547;BME280;53400;50.364;14.874;2023-11-22T03:27:55;99136.31;;;-0.67;100.00
66547;BME280;53400;50.364;14.874;2023-11-22T03:30:21;99130.38;;;-0.77;100.00
66547;BME280;53400;50.364;14.874;2023-11-22T03:32:49;99132.38;;;-0.63;100.00
66547;BME280;53400;50.364;14.874;2023-11-22T03:35:15;99137.81;;;-0.56;100.00
66547;BME280;53400;50.364;14.874;2023-11-22T03:37:43;99136.31;;;-0.75;100.00
66547;BME280;53400;50.364;14.874;2023-11-22T03:40:23;99147.97;;;-0.78;100.00
66547;BME280;53400;50.364;14.874;2023-11-22T03:42:50;99166.81;;;-0.82;100.00
66547;BME280;53400;50.364;14.874;2023-11-22T03:45:16;99162.44;;;-0.74;100.00
66547;BME280;53400;50.364;14.874;2023-11-22T03:47:43;99156.03;;;-0.71;100.00
66547;BME280;53400;50.364;14.874;2023-11-22T03:50:10;99152.63;;;-0.63;100.00
66547;BME280;53400;50.364;14.874;2023-11-22T03:52:36;99150.13;;;-0.65;100.00
66547;BME280;53400;50.364;14.874;2023-11-22T03:55:03;99159.16;;;-0.67;100.00
66547;BME280;53400;50.364;14.874;2023-11-22T03:57:31;99161.53;;;-0.48;100.00
66547;BME280;53400;50.364;14.874;2023-11-22T03:59:59;99168.13;;;-0.44;100.00
66547;BME280;53400;50.364;14.874;2023-11-22T04:02:28;99166.94;;;-0.58;100.00
66547;BME280;53400;50.364;14.874;2023-11-22T04:04:55;99172.41;;;-0.35;100.00
66547;BME280;53400;50.364;14.874;2023-11-22T04:07:24;99172.59;;;-0.36;100.00
66547;BME280;53400;50.364;14.874;2023-11-22T04:09:50;99177.19;;;-0.38;100.00
66547;BME280;53400;50.364;14.874;2023-11-22T04:12:17;99181.66;;;-0.22;100.00
66547;BME280;53400;50.364;14.874;2023-11-22T04:14:44;99192.28;;;-0.40;100.00
66547;BME280;53400;50.364;14.874;2023-11-22T04:17:12;99181.50;;;-0.21;100.00
66547;BME280;53400;50.364;14.874;2023-11-22T04:19:38;99187.13;;;0.01;100.00
66547;BME280;53400;50.364;14.874;2023-11-22T04:22:04;99203.25;;;0.06;100.00
66547;BME280;53400;50.364;14.874;2023-11-22T04:24:32;99204.22;;;0.05;100.00
66547;BME280;53400;50.364;14.874;2023-11-22T04:26:58;99204.09;;;0.06;100.00
66547;BME280;53400;50.364;14.874;2023-11-22T04:29:24;99195.53;;;0.12;100.00
66547;BME280;53400;50.364;14.874;2023-11-22T04:31:51;99200.78;;;0.12;100.00
66547;BME280;53400;50.364;14.874;2023-11-22T04:34:18;99200.63;;;0.14;100.00
66547;BME280;53400;50.364;14.874;2023-11-22T04:36:44;99204.56;;;0.10;100.00
66547;BME280;53400;50.364;14.874;2023-11-22T04:39:12;99208.00;;;-0.14;100.00
66547;BME280;53400;50.364;14.874;2023-11-22T04:41:40;99206.03;;;-0.04;100.00
66547;BME280;53400;50.364;14.874;2023-11-22T04:44:06;99211.13;;;0.06;100.00
66547;BME280;53400;50.364;14.874;2023-11-22T04:46:33;99214.44;;;0.08;100.00
66547;BME280;53400;50.364;14.874;2023-11-22T04:49:00;99216.91;;;0.01;100.00
66547;BME280;53400;50.364;14.874;2023-11-22T04:51:27;99231.56;;;0.12;100.00
66547;BME280;53400;50.364;14.874;2023-11-22T04:53:55;99237.66;;;0.04;100.00
66547;BME280;53400;50.364;14.874;2023-11-22T04:56:21;99244.34;;;-0.18;100.00
66547;BME280;53400;50.364;14.874;2023-11-22T04:58:49;99247.91;;;-0.35;100.00
66547;BME280;53400;50.364;14.874;2023-11-22T05:01:15;99257.16;;;-0.23;100.00
66547;BME280;53400;50.364;14.874;2023-11-22T05:03:41;99263.56;;;-0.26;100.00
66547;BME280;53400;50.364;14.874;2023-11-22T05:06:08;99275.88;;;-0.42;100.00
66547;BME280;53400;50.364;14.874;2023-11-22T05:08:34;99290.88;;;-0.27;100.00
66547;BME280;53400;50.364;14.874;2023-11-22T05:11:00;99281.19;;;-0.26;100.00
66547;BME280;53400;50.364;14.874;2023-11-22T05:13:26;99285.41;;;-0.41;100.00
66547;BME280;53400;50.364;14.874;2023-11-22T05:15:57;99291.97;;;-0.37;100.00
66547;BME280;53400;50.364;14.874;2023-11-22T05:18:24;99295.47;;;-0.29;100.00
66547;BME280;53400;50.364;14.874;2023-11-22T05:20:51;99299.09;;;-0.21;100.00
66547;BME280;53400;50.364;14.874;2023-11-22T05:23:17;99310.50;;;-0.21;100.00
66547;BME280;53400;50.364;14.874;2023-11-22T05:25:44;99312.28;;;-0.21;100.00
66547;BME280;53400;50.364;14.874;2023-11-22T05:28:11;99330.69;;;-0.30;100.00
66547;BME280;53400;50.364;14.874;2023-11-22T05:30:38;99327.22;;;-0.30;100.00
66547;BME280;53400;50.364;14.874;2023-11-22T05:33:06;99330.00;;;-0.32;100.00
66547;BME280;53400;50.364;14.874;2023-11-22T05:35:33;99334.00;;;-0.19;100.00
66547;BME280;53400;50.364;14.874;2023-11-22T05:37:59;99337.84;;;-0.40;100.00
66547;BME280;53400;50.364;14.874;2023-11-22T05:40:25;99337.03;;;-0.40;100.00
66547;BME280;53400;50.364;14.874;2023-11-22T05:42:51;99337.94;;;-0.24;100.00
66547;BME280;53400;50.364;14.874;2023-11-22T05:45:18;99350.00;;;-0.13;100.00
66547;BME280;53400;50.364;14.874;2023-11-22T05:47:52;99343.22;;;-0.24;100.00
66547;BME280;53400;50.364;14.874;2023-11-22T05:50:20;99336.78;;;-0.29;100.00
66547;BME280;53400;50.364;14.874;2023-11-22T05:52:46;99346.91;;;-0.08;100.00
66547;BME280;53400;50.364;14.874;2023-11-22T05:55:12;99342.91;;;-0.20;100.00
66547;BME280;53400;50.364;14.874;2023-11-22T05:57:39;99345.81;;;-0.32;100.00
66547;BME280;53400;50.364;14.874;2023-11-22T06:00:07;99346.00;;;-0.25;100.00
66547;BME280;53400;50.364;14.874;2023-11-22T06:02:33;99354.50;;;-0.39;100.00
66547;BME280;53400;50.364;14.874;2023-11-22T06:04:59;99364.72;;;-0.36;100.00
66547;BME280;53400;50.364;14.874;2023-11-22T06:07:27;99366.41;;;-0.27;100.00
66547;BME280;53400;50.364;14.874;2023-11-22T06:09:53;99372.13;;;-0.32;100.00
66547;BME280;53400;50.364;14.874;2023-11-22T06:12:19;99372.19;;;-0.15;100.00
66547;BME280;53400;50.364;14.874;2023-11-22T06:14:46;99367.25;;;-0.18;100.00
66547;BME280;53400;50.364;14.874;2023-11-22T06:17:12;99370.41;;;-0.07;100.00
66547;BME280;53400;50.364;14.874;2023-11-22T06:19:38;99369.09;;;-0.11;100.00
66547;BME280;53400;50.364;14.874;2023-11-22T06:22:04;99369.78;;;-0.01;100.00
66547;BME280;53400;50.364;14.874;2023-11-22T06:24:32;99370.56;;;-0.16;100.00
66547;BME280;53400;50.364;14.874;2023-11-22T06:26:58;99370.25;;;-0.13;100.00
66547;BME280;53400;50.364;14.874;2023-11-22T06:29:25;99381.88;;;-0.24;100.00
66547;BME280;53400;50.364;14.874;2023-11-22T06:31:55;99392.88;;;-0.29;100.00
66547;BME280;53400;50.364;14.874;2023-11-22T06:34:22;99380.69;;;-0.30;100.00
66547;BME280;53400;50.364;14.874;2023-11-22T06:36:48;99381.19;;;-0.26;100.00
66547;BME280;53400;50.364;14.874;2023-11-22T06:39:14;99389.16;;;-0.10;100.00
66547;BME280;53400;50.364;14.874;2023-11-22T06:41:42;99396.38;;;-0.20;100.00
66547;BME280;53400;50.364;14.874;2023-11-22T06:44:10;99404.78;;;-0.16;100.00
66547;BME280;53400;50.364;14.874;2023-11-22T06:46:36;99398.63;;;-0.33;100.00
66547;BME280;53400;50.364;14.874;2023-11-22T06:49:03;99399.16;;;-0.21;100.00
66547;BME280;53400;50.364;14.874;2023-11-22T06:51:29;99406.28;;;-0.14;100.00
66547;BME280;53400;50.364;14.874;2023-11-22T06:53:55;99408.78;;;-0.04;100.00
66547;BME280;53400;50.364;14.874;2023-11-22T06:56:22;99414.84;;;-0.12;100.00
66547;BME280;53400;50.364;14.874;2023-11-22T06:58:50;99413.16;;;-0.21;100.00
66547;BME280;53400;50.364;14.874;2023-11-22T07:01:17;99407.84;;;-0.29;100.00
66547;BME280;53400;50.364;14.874;2023-11-22T07:03:43;99407.97;;;-0.31;100.00
66547;BME280;53400;50.364;14.874;2023-11-22T07:06:09;99389.88;;;-0.34;100.00
66547;BME280;53400;50.364;14.874;2023-11-22T07:08:36;99399.47;;;-0.25;100.00
66547;BME280;53400;50.364;14.874;2023-11-22T07:11:02;99413.47;;;-0.24;100.00
66547;BME280;53400;50.364;14.874;2023-11-22T07:13:29;99426.34;;;-0.13;100.00
66547;BME280;53400;50.364;14.874;2023-11-22T07:15:57;99424.06;;;-0.08;100.00
66547;BME280;53400;50.364;14.874;2023-11-22T07:18:23;99416.31;;;-0.09;100.00
66547;BME280;53400;50.364;14.874;2023-11-22T07:20:50;99428.34;;;-0.07;100.00
66547;BME280;53400;50.364;14.874;2023-11-22T07:23:16;99426.44;;;0.04;100.00
66547;BME280;53400;50.364;14.874;2023-11-22T07:25:42;99438.69;;;0.21;100.00
66547;BME280;53400;50.364;14.874;2023-11-22T07:28:09;99463.38;;;0.20;100.00
66547;BME280;53400;50.364;14.874;2023-11-22T07:30:35;99456.25;;;0.04;100.00
66547;BME280;53400;50.364;14.874;2023-11-22T07:33:06;99472.81;;;-0.04;100.00
66547;BME280;53400;50.364;14.874;2023-11-22T07:35:32;99468.28;;;-0.19;100.00
66547;BME280;53400;50.364;14.874;2023-11-22T07:37:58;99474.47;;;-0.03;100.00
66547;BME280;53400;50.364;14.874;2023-11-22T07:40:24;99485.19;;;-0.22;100.00
66547;BME280;53400;50.364;14.874;2023-11-22T07:42:50;99484.47;;;-0.06;100.00
66547;BME280;53400;50.364;14.874;2023-11-22T07:45:17;99496.56;;;0.05;100.00
66547;BME280;53400;50.364;14.874;2023-11-22T07:48:05;99498.56;;;0.11;100.00
66547;BME280;53400;50.364;14.874;2023-11-22T07:50:34;99496.13;;;0.09;100.00
66547;BME280;53400;50.364;14.874;2023-11-22T07:53:00;99503.84;;;0.11;100.00
66547;BME280;53400;50.364;14.874;2023-11-22T07:55:28;99501.22;;;0.11;100.00
66547;BME280;53400;50.364;14.874;2023-11-22T07:57:57;99496.56;;;0.05;100.00
66547;BME280;53400;50.364;14.874;2023-11-22T08:00:24;99477.44;;;-0.06;100.00
66547;BME280;53400;50.364;14.874;2023-11-22T08:02:51;99480.09;;;-0.24;100.00
66547;BME280;53400;50.364;14.874;2023-11-22T08:05:24;99476.03;;;-0.18;100.00
66547;BME280;53400;50.364;14.874;2023-11-22T08:07:55;99461.50;;;-0.22;100.00
66547;BME280;53400;50.364;14.874;2023-11-22T08:10:21;99456.03;;;-0.03;100.00
66547;BME280;53400;50.364;14.874;2023-11-22T08:12:48;99465.63;;;-0.19;100.00
66547;BME280;53400;50.364;14.874;2023-11-22T08:15:16;99490.59;;;-0.06;100.00
66547;BME280;53400;50.364;14.874;2023-11-22T08:17:44;99518.47;;;-0.21;100.00
66547;BME280;53400;50.364;14.874;2023-11-22T08:20:10;99524.69;;;-0.22;100.00
66547;BME280;53400;50.364;14.874;2023-11-22T08:22:44;99521.34;;;-0.32;100.00
66547;BME280;53400;50.364;14.874;2023-11-22T08:25:11;99541.84;;;-0.18;100.00
66547;BME280;53400;50.364;14.874;2023-11-22T08:27:39;99544.09;;;-0.23;100.00
66547;BME280;53400;50.364;14.874;2023-11-22T08:30:07;99545.75;;;-0.22;100.00
66547;BME280;53400;50.364;14.874;2023-11-22T08:32:36;99548.75;;;-0.17;100.00
66547;BME280;53400;50.364;14.874;2023-11-22T08:35:04;99546.88;;;-0.25;100.00
66547;BME280;53400;50.364;14.874;2023-11-22T08:37:34;99542.81;;;-0.19;100.00
66547;BME280;53400;50.364;14.874;2023-11-22T08:40:07;99539.13;;;-0.08;100.00
66547;BME280;53400;50.364;14.874;2023-11-22T08:42:33;99528.06;;;-0.12;100.00
66547;BME280;53400;50.364;14.874;2023-11-22T08:44:59;99540.34;;;0.06;100.00
66547;BME280;53400;50.364;14.874;2023-11-22T08:47:26;99538.81;;;-0.05;100.00
66547;BME280;53400;50.364;14.874;2023-11-22T08:49:57;99538.00;;;-0.06;100.00
66547;BME280;53400;50.364;14.874;2023-11-22T08:52:24;99546.53;;;-0.04;100.00
66547;BME280;53400;50.364;14.874;2023-11-22T08:54:50;99557.41;;;0.19;100.00
66547;BME280;53400;50.364;14.874;2023-11-22T08:57:22;99552.66;;;0.23;100.00
66547;BME280;53400;50.364;14.874;2023-11-22T08:59:57;99555.09;;;0.16;100.00
66547;BME280;53400;50.364;14.874;2023-11-22T09:02:28;99554.06;;;0.09;100.00
66547;BME280;53400;50.364;14.874;2023-11-22T09:04:57;99551.66;;;0.24;100.00
66547;BME280;53400;50.364;14.874;2023-11-22T09:07:24;99546.00;;;0.11;100.00
66547;BME280;53400;50.364;14.874;2023-11-22T09:09:53;99553.78;;;0.20;100.00
66547;BME280;53400;50.364;14.874;2023-11-22T09:12:21;99556.66;;;0.35;100.00
66547;BME280;53400;50.364;14.874;2023-11-22T09:14:47;99563.81;;;0.43;100.00
66547;BME280;53400;50.364;14.874;2023-11-22T09:17:13;99551.28;;;0.45;100.00
66547;BME280;53400;50.364;14.874;2023-11-22T09:19:39;99566.13;;;0.46;100.00
66547;BME280;53400;50.364;14.874;2023-11-22T09:22:05;99570.47;;;0.55;100.00
66547;BME280;53400;50.364;14.874;2023-11-22T09:24:32;99572.53;;;0.43;100.00
66547;BME280;53400;50.364;14.874;2023-11-22T09:26:58;99560.63;;;0.39;100.00
66547;BME280;53400;50.364;14.874;2023-11-22T09:29:27;99560.50;;;0.41;100.00
66547;BME280;53400;50.364;14.874;2023-11-22T09:31:56;99567.47;;;0.50;100.00
66547;BME280;53400;50.364;14.874;2023-11-22T09:34:26;99578.47;;;0.45;100.00
66547;BME280;53400;50.364;14.874;2023-11-22T09:36:58;99588.66;;;0.40;100.00
66547;BME280;53400;50.364;14.874;2023-11-22T09:39:26;99591.00;;;0.52;100.00
66547;BME280;53400;50.364;14.874;2023-11-22T09:41:54;99588.38;;;0.52;100.00
66547;BME280;53400;50.364;14.874;2023-11-22T09:44:31;99596.34;;;0.60;100.00
66547;BME280;53400;50.364;14.874;2023-11-22T09:46:58;99601.22;;;0.47;100.00
66547;BME280;53400;50.364;14.874;2023-11-22T09:49:25;99583.84;;;0.62;100.00
66547;BME280;53400;50.364;14.874;2023-11-22T09:51:55;99587.59;;;0.59;100.00
66547;BME280;53400;50.364;14.874;2023-11-22T09:54:26;99581.19;;;0.62;100.00
66547;BME280;53400;50.364;14.874;2023-11-22T09:56:58;99595.00;;;0.56;100.00
66547;BME280;53400;50.364;14.874;2023-11-22T09:59:27;99596.22;;;0.69;100.00
66547;BME280;53400;50.364;14.874;2023-11-22T10:01:56;99595.56;;;0.67;100.00
66547;BME280;53400;50.364;14.874;2023-11-22T10:04:26;99590.97;;;0.78;100.00
66547;BME280;53400;50.364;14.874;2023-11-22T10:06:56;99595.84;;;0.99;99.65
66547;BME280;53400;50.364;14.874;2023-11-22T10:09:24;99607.09;;;1.01;99.87
66547;BME280;53400;50.364;14.874;2023-11-22T10:11:59;99611.81;;;0.97;100.00
66547;BME280;53400;50.364;14.874;2023-11-22T10:14:37;99626.97;;;0.61;99.98
66547;BME280;53400;50.364;14.874;2023-11-22T10:17:09;99631.22;;;0.54;100.00
66547;BME280;53400;50.364;14.874;2023-11-22T10:19:40;99647.19;;;0.78;100.00
66547;BME280;53400;50.364;14.874;2023-11-22T10:22:16;99647.91;;;0.62;99.58
66547;BME280;53400;50.364;14.874;2023-11-22T10:24:49;99650.00;;;0.51;99.65
66547;BME280;53400;50.364;14.874;2023-11-22T10:27:50;99639.97;;;0.54;100.00
66547;BME280;53400;50.364;14.874;2023-11-22T10:30:46;99637.63;;;0.51;100.00
66547;BME280;53400;50.364;14.874;2023-11-22T10:33:20;99631.97;;;0.38;100.00
66547;BME280;53400;50.364;14.874;2023-11-22T10:35:51;99641.78;;;0.28;99.98
66547;BME280;53400;50.364;14.874;2023-11-22T10:38:21;99648.59;;;0.38;99.26
66547;BME280;53400;50.364;14.874;2023-11-22T10:40:47;99647.56;;;0.31;99.62
66547;BME280;53400;50.364;14.874;2023-11-22T10:43:14;99653.59;;;0.23;99.05
66547;BME280;53400;50.364;14.874;2023-11-22T10:45:42;99658.34;;;0.20;99.79
66547;BME280;53400;50.364;14.874;2023-11-22T10:48:15;99660.44;;;0.16;99.32
66547;BME280;53400;50.364;14.874;2023-11-22T10:50:43;99663.50;;;0.30;99.83
66547;BME280;53400;50.364;14.874;2023-11-22T10:53:13;99661.88;;;0.29;99.61
66547;BME280;53400;50.364;14.874;2023-11-22T10:55:44;99654.56;;;0.22;100.00
66547;BME280;53400;50.364;14.874;2023-11-22T10:58:14;99660.13;;;0.37;100.00
66547;BME280;53400;50.364;14.874;2023-11-22T11:00:41;99652.63;;;0.51;99.84
66547;BME280;53400;50.364;14.874;2023-11-22T11:03:14;99652.81;;;0.57;99.20
66547;BME280;53400;50.364;14.874;2023-11-22T11:05:44;99655.25;;;0.77;97.67
66547;BME280;53400;50.364;14.874;2023-11-22T11:08:16;99661.00;;;0.72;96.80
66547;BME280;53400;50.364;14.874;2023-11-22T11:10:48;99662.41;;;0.58;97.62
66547;BME280;53400;50.364;14.874;2023-11-22T11:13:15;99655.19;;;0.42;98.04
66547;BME280;53400;50.364;14.874;2023-11-22T11:15:43;99654.03;;;0.37;98.42
66547;BME280;53400;50.364;14.874;2023-11-22T11:18:14;99649.06;;;0.60;98.13
66547;BME280;53400;50.364;14.874;2023-11-22T11:20:48;99649.13;;;0.68;96.56
66547;BME280;53400;50.364;14.874;2023-11-22T11:23:15;99648.19;;;0.77;96.59
66547;BME280;53400;50.364;14.874;2023-11-22T11:25:42;99645.34;;;0.71;96.53
66547;BME280;53400;50.364;14.874;2023-11-22T11:28:10;99640.47;;;0.58;97.32
66547;BME280;53400;50.364;14.874;2023-11-22T11:30:48;99645.19;;;0.46;97.76
66547;BME280;53400;50.364;14.874;2023-11-22T11:33:15;99652.78;;;0.75;97.16
66547;BME280;53400;50.364;14.874;2023-11-22T11:35:43;99646.28;;;0.61;96.26
66547;BME280;53400;50.364;14.874;2023-11-22T11:38:31;99637.00;;;0.83;95.39
66547;BME280;53400;50.364;14.874;2023-11-22T11:41:06;99652.34;;;0.88;94.86
66547;BME280;53400;50.364;14.874;2023-11-22T11:43:42;99654.66;;;0.91;94.53
66547;BME280;53400;50.364;14.874;2023-11-22T11:46:09;99638.88;;;0.99;94.55
66547;BME280;53400;50.364;14.874;2023-11-22T11:48:35;99647.47;;;0.67;96.30
66547;BME280;53400;50.364;14.874;2023-11-22T11:51:02;99637.13;;;0.74;95.46
66547;BME280;53400;50.364;14.874;2023-11-22T11:53:30;99651.94;;;1.01;95.98
66547;BME280;53400;50.364;14.874;2023-11-22T11:55:59;99656.25;;;1.18;94.23
66547;BME280;53400;50.364;14.874;2023-11-22T11:58:28;99650.81;;;1.11;93.57
66547;BME280;53400;50.364;14.874;2023-11-22T12:00:56;99657.56;;;1.14;93.12
66547;BME280;53400;50.364;14.874;2023-11-22T12:03:23;99667.97;;;1.15;93.57
66547;BME280;53400;50.364;14.874;2023-11-22T12:05:52;99683.59;;;1.01;93.17
66547;BME280;53400;50.364;14.874;2023-11-22T12:08:18;99669.34;;;0.94;93.65
66547;BME280;53400;50.364;14.874;2023-11-22T12:10:49;99678.81;;;0.70;94.33
66547;BME280;53400;50.364;14.874;2023-11-22T12:13:17;99674.19;;;1.06;94.20
66547;BME280;53400;50.364;14.874;2023-11-22T12:15:44;99689.88;;;1.08;93.13
66547;BME280;53400;50.364;14.874;2023-11-22T12:18:22;99685.66;;;1.23;93.06
66547;BME280;53400;50.364;14.874;2023-11-22T12:20:55;99697.28;;;1.04;93.26
66547;BME280;53400;50.364;14.874;2023-11-22T12:23:23;99694.72;;;0.86;94.65
66547;BME280;53400;50.364;14.874;2023-11-22T12:25:56;99693.38;;;0.82;96.05
66547;BME280;53400;50.364;14.874;2023-11-22T12:28:26;99698.25;;;1.03;95.43
66547;BME280;53400;50.364;14.874;2023-11-22T12:30:53;99700.53;;;0.98;96.50
66547;BME280;53400;50.364;14.874;2023-11-22T12:33:19;99699.91;;;1.04;95.69
66547;BME280;53400;50.364;14.874;2023-11-22T12:35:50;99697.09;;;0.98;96.24
66547;BME280;53400;50.364;14.874;2023-11-22T12:38:17;99691.31;;;0.68;97.96
66547;BME280;53400;50.364;14.874;2023-11-22T12:40:45;99693.47;;;0.73;96.70
66547;BME280;53400;50.364;14.874;2023-11-22T12:43:14;99690.19;;;0.79;95.90
66547;BME280;53400;50.364;14.874;2023-11-22T12:45:41;99696.31;;;0.79;95.74
66547;BME280;53400;50.364;14.874;2023-11-22T12:48:25;99688.59;;;0.86;96.44
66547;BME280;53400;50.364;14.874;2023-11-22T12:50:52;99692.06;;;1.21;94.42